ベルリン/テーゲル の空港の天気 - METARとTAF

ベルリン・テーゲル国際空港 ( EDDT / TXL ) - ドイツ ベルリン
飛行場実況気象(Metar)
観測時間08/05 00:20 CEST (08/04 22:20 UTC)
風向・風速不定 1m/s
視程10km以上
天気現象
なし
気温14℃
湿度77%
気圧1017hPa
METAREDDT 042220Z VRB01KT CAVOK 14/10 Q1017
過去の天気等 Google飛行場航空写真 Wunderground天気予報

過去48時間のMETAR

飛行場予報(TAF)
発表時間: 8/04 19:00 CEST (8/04 17:00 UTC)
予報対象時間: 4日20時 CEST ~ 5日20時 CEST
風向・風速不定 1m/s
視程10km以上
なし
5日8時 CEST ~ 5日10時 CEST に徐々に
風向・風速南南西 4m/s
TAF EDDT 041700Z 0418/0518 VRB02KT CAVOK
BECMG 0506/0508 20007KT